createdAt,value
2024-04-01T00:00:20.074Z,212.00
2024-04-01T00:01:21.103Z,211.67
2024-04-01T00:02:21.962Z,209.83
2024-04-01T00:03:22.824Z,208.33
2024-04-01T00:04:23.669Z,207.33
2024-04-01T00:05:24.513Z,206.33
2024-04-01T00:06:25.350Z,205.17
2024-04-01T00:07:26.205Z,205.00
2024-04-01T00:08:27.317Z,205.00
2024-04-01T00:09:28.158Z,205.50
2024-04-01T00:10:28.988Z,206.00
2024-04-01T00:11:29.842Z,205.83
2024-04-01T00:12:30.696Z,204.67
2024-04-01T00:13:31.532Z,202.00
2024-04-01T00:14:32.386Z,199.50
2024-04-01T00:15:33.215Z,195.50
2024-04-01T00:16:34.077Z,192.83
2024-04-01T00:17:34.950Z,191.00
2024-04-01T00:18:35.798Z,190.00
2024-04-01T00:19:36.631Z,190.00
2024-04-01T00:20:37.689Z,190.00
2024-04-01T00:21:38.546Z,190.17
2024-04-01T00:22:39.385Z,191.00
2024-04-01T00:23:40.234Z,191.00
2024-04-01T00:24:41.065Z,190.67
2024-04-01T00:25:41.924Z,190.00
2024-04-01T00:26:43.818Z,189.17
2024-04-01T00:27:44.788Z,187.33
2024-04-01T00:28:45.632Z,186.00
2024-04-01T00:29:46.471Z,183.83
2024-04-01T00:30:47.315Z,179.00
2024-04-01T00:31:48.168Z,178.00
2024-04-01T00:32:49.003Z,177.17
2024-04-01T00:33:50.539Z,174.50
2024-04-01T00:34:54.049Z,172.67
2024-04-01T00:35:58.950Z,170.50
2024-04-01T00:36:59.842Z,169.00
2024-04-01T00:38:00.684Z,169.50
2024-04-01T00:39:01.735Z,170.50
2024-04-01T00:40:02.796Z,171.00
2024-04-01T00:41:03.744Z,171.50
2024-04-01T00:42:05.026Z,171.17
2024-04-01T00:43:09.252Z,170.50
2024-04-01T00:44:10.101Z,169.00
2024-04-01T00:45:10.942Z,169.00
2024-04-01T00:46:11.775Z,169.83
2024-04-01T00:47:12.636Z,170.67
2024-04-01T00:48:14.027Z,171.67
2024-04-01T00:49:16.498Z,172.83
2024-04-01T00:50:17.898Z,173.00
2024-04-01T00:51:19.088Z,173.00
2024-04-01T00:52:19.965Z,173.00
2024-04-01T00:53:20.898Z,173.33
2024-04-01T00:54:21.727Z,174.00
2024-04-01T00:55:22.663Z,174.00
2024-04-01T00:56:23.580Z,174.00
2024-04-01T00:57:24.483Z,174.00
2024-04-01T00:58:25.458Z,174.50
2024-04-01T00:59:26.295Z,175.00
2024-04-01T01:00:27.171Z,175.00
2024-04-01T01:01:28.016Z,175.00
2024-04-01T01:02:29.571Z,175.00
2024-04-01T01:03:30.441Z,175.00
2024-04-01T01:04:31.276Z,175.67
2024-04-01T01:05:32.318Z,176.00
2024-04-01T01:06:33.202Z,176.00
2024-04-01T01:07:34.032Z,176.00
2024-04-01T01:08:34.864Z,176.00
2024-04-01T01:09:36.503Z,176.67
2024-04-01T01:10:37.378Z,177.83
2024-04-01T01:11:38.901Z,179.00
2024-04-01T01:12:40.324Z,180.50
2024-04-01T01:13:41.163Z,183.50
2024-04-01T01:14:41.996Z,187.50
2024-04-01T01:15:42.834Z,192.17
2024-04-01T01:16:43.732Z,193.00
2024-04-01T01:17:45.610Z,193.67
2024-04-01T01:18:46.452Z,195.67
2024-04-01T01:19:47.288Z,195.00
2024-04-01T01:20:48.160Z,195.33
2024-04-01T01:21:48.998Z,195.83
2024-04-01T01:22:49.832Z,195.00
2024-04-01T01:23:50.695Z,194.83
2024-04-01T01:24:51.528Z,194.00
2024-04-01T01:25:52.378Z,194.00
2024-04-01T01:26:55.577Z,194.00
2024-04-01T01:27:56.428Z,193.83
2024-04-01T01:28:58.628Z,193.00
2024-04-01T01:30:04.202Z,193.00
2024-04-01T01:31:05.275Z,193.00
2024-04-01T01:32:06.251Z,193.00
2024-04-01T01:33:07.211Z,193.00
2024-04-01T01:34:08.048Z,193.00
2024-04-01T01:35:09.205Z,192.33
2024-04-01T01:36:10.062Z,190.83
2024-04-01T01:37:10.916Z,189.00
2024-04-01T01:38:13.139Z,188.00
2024-04-01T01:39:13.980Z,188.00
2024-04-01T01:40:14.867Z,187.50
2024-04-01T01:41:15.699Z,185.50
2024-04-01T01:42:16.540Z,184.00
2024-04-01T01:43:17.418Z,183.67
2024-04-01T01:44:18.253Z,183.50
2024-04-01T01:45:19.112Z,184.00
2024-04-01T01:46:19.958Z,184.00
2024-04-01T01:47:20.800Z,184.00
2024-04-01T01:48:21.631Z,183.50
2024-04-01T01:49:23.873Z,182.33
2024-04-01T01:50:24.774Z,182.00
2024-04-01T01:51:27.190Z,181.00
2024-04-01T01:52:28.025Z,177.17
2024-04-01T01:53:28.878Z,176.00
2024-04-01T01:54:29.727Z,175.17
2024-04-01T01:55:30.570Z,172.17
2024-04-01T01:56:32.047Z,170.33
2024-04-01T01:57:33.176Z,168.83
2024-04-01T01:58:34.052Z,166.33
2024-04-01T01:59:34.931Z,164.67
2024-04-01T02:00:35.766Z,162.17
2024-04-01T02:01:36.612Z,161.17
2024-04-01T02:02:37.448Z,160.83
2024-04-01T02:03:38.338Z,160.33
2024-04-01T02:04:39.264Z,160.00
2024-04-01T02:05:41.887Z,160.50
2024-04-01T02:06:42.779Z,158.83
2024-04-01T02:07:43.630Z,156.17
2024-04-01T02:08:44.461Z,149.83
2024-04-01T02:09:45.304Z,142.83
2024-04-01T02:10:56.123Z,133.83
2024-04-01T02:11:57.668Z,127.83
2024-04-01T02:12:58.533Z,126.00
2024-04-01T02:13:59.458Z,121.17
2024-04-01T02:15:00.319Z,120.00
2024-04-01T02:16:07.909Z,116.67
2024-04-01T02:17:08.819Z,110.83
2024-04-01T02:18:09.678Z,102.67
2024-04-01T02:19:10.515Z,99.17
2024-04-01T02:20:16.069Z,99.50
2024-04-01T02:21:18.651Z,103.17
2024-04-01T02:22:22.799Z,102.83
2024-04-01T02:23:29.581Z,103.33
2024-04-01T02:24:30.413Z,103.50
2024-04-01T02:25:34.075Z,97.00
2024-04-01T02:26:34.999Z,93.50
2024-04-01T02:27:35.837Z,91.83
2024-04-01T02:28:36.668Z,92.67
2024-04-01T02:29:37.912Z,93.50
2024-04-01T02:30:38.762Z,94.33
2024-04-01T02:31:39.599Z,95.33
2024-04-01T02:32:40.601Z,96.00
2024-04-01T02:33:41.432Z,96.50
2024-04-01T02:34:42.269Z,97.00
2024-04-01T02:35:43.153Z,96.67
2024-04-01T02:36:43.988Z,96.33
2024-04-01T02:37:44.832Z,96.17
2024-04-01T02:38:48.717Z,96.00
2024-04-01T02:39:49.550Z,95.67
2024-04-01T02:40:50.405Z,96.00
2024-04-01T02:41:51.548Z,96.83
2024-04-01T02:42:52.388Z,98.33
2024-04-01T02:43:53.240Z,99.00
2024-04-01T02:44:54.113Z,100.00
2024-04-01T02:45:54.957Z,99.33
2024-04-01T02:46:55.793Z,99.67
2024-04-01T02:47:56.736Z,99.00
2024-04-01T02:48:57.571Z,99.00
2024-04-01T02:49:58.565Z,98.33
2024-04-01T02:50:59.401Z,98.00
2024-04-01T02:52:00.229Z,97.33
2024-04-01T02:53:01.145Z,97.00
2024-04-01T02:54:02.092Z,96.33
2024-04-01T02:55:03.079Z,96.00
2024-04-01T02:56:07.019Z,96.00
2024-04-01T02:57:08.758Z,94.50
2024-04-01T02:58:09.709Z,91.67
2024-04-01T02:59:10.558Z,88.83
2024-04-01T03:00:17.703Z,86.17
2024-04-01T03:01:18.582Z,85.17
2024-04-01T03:02:19.414Z,84.83
2024-04-01T03:03:20.605Z,85.00
2024-04-01T03:04:21.473Z,85.67
2024-04-01T03:05:22.311Z,86.00
2024-04-01T03:06:23.144Z,86.00
2024-04-01T03:07:23.979Z,86.00
2024-04-01T03:08:25.295Z,86.00
2024-04-01T03:09:26.137Z,85.83
2024-04-01T03:10:27.051Z,83.83
2024-04-01T03:11:27.912Z,82.33
2024-04-01T03:12:28.821Z,81.50
2024-04-01T03:13:29.729Z,80.83
2024-04-01T03:14:30.580Z,80.00
2024-04-01T03:15:31.531Z,80.50
2024-04-01T03:16:32.386Z,80.17
2024-04-01T03:17:33.245Z,80.67
2024-04-01T03:18:34.114Z,87.17
2024-04-01T03:19:34.948Z,102.33
2024-04-01T03:20:35.782Z,104.50
2024-04-01T03:21:36.618Z,104.00
2024-04-01T03:22:37.479Z,102.17
2024-04-01T03:23:38.323Z,100.00
2024-04-01T03:24:39.162Z,97.00
2024-04-01T03:25:40.062Z,95.17
2024-04-01T03:26:40.910Z,94.17
2024-04-01T03:27:42.726Z,94.00
2024-04-01T03:28:44.240Z,94.00
2024-04-01T03:29:45.077Z,94.00
2024-04-01T03:30:46.536Z,93.50
2024-04-01T03:31:47.372Z,94.00
2024-04-01T03:32:48.240Z,94.00
2024-04-01T03:33:49.076Z,94.00
2024-04-01T03:34:50.358Z,94.00
2024-04-01T03:35:56.962Z,93.00
2024-04-01T03:36:59.633Z,90.17
2024-04-01T03:38:00.586Z,83.83
2024-04-01T03:39:01.669Z,79.33
2024-04-01T03:40:02.670Z,79.83
2024-04-01T03:41:03.626Z,78.33
2024-04-01T03:42:04.533Z,76.00
2024-04-01T03:43:08.524Z,74.33
2024-04-01T03:44:09.365Z,72.83
2024-04-01T03:45:10.191Z,71.67
2024-04-01T03:46:11.053Z,69.33
2024-04-01T03:47:11.894Z,69.50
2024-04-01T03:48:12.773Z,70.00
2024-04-01T03:49:13.635Z,70.67
2024-04-01T03:50:14.500Z,71.50
2024-04-01T03:51:15.676Z,73.17
2024-04-01T03:52:16.505Z,79.33
2024-04-01T03:53:17.499Z,92.50
2024-04-01T03:54:18.362Z,103.17
2024-04-01T03:55:19.290Z,108.33
2024-04-01T03:56:20.148Z,115.83
2024-04-01T03:57:20.985Z,124.00
2024-04-01T03:58:21.829Z,128.83
2024-04-01T03:59:22.674Z,125.00
2024-04-01T04:00:23.544Z,123.33
2024-04-01T04:01:24.642Z,126.50
2024-04-01T04:02:25.514Z,131.83
2024-04-01T04:03:26.372Z,131.33
2024-04-01T04:04:27.251Z,130.50
2024-04-01T04:05:28.279Z,128.33
2024-04-01T04:06:29.142Z,126.83
2024-04-01T04:07:29.977Z,126.00
2024-04-01T04:08:30.821Z,124.67
2024-04-01T04:09:31.678Z,123.83
2024-04-01T04:10:32.520Z,122.67
2024-04-01T04:11:33.718Z,121.83
2024-04-01T04:12:34.548Z,120.33
2024-04-01T04:13:35.420Z,117.83
2024-04-01T04:14:36.287Z,114.83
2024-04-01T04:15:37.151Z,107.67
2024-04-01T04:16:38.062Z,102.83
2024-04-01T04:17:38.900Z,100.17
2024-04-01T04:18:39.755Z,97.67
2024-04-01T04:19:40.591Z,94.83
2024-04-01T04:20:41.430Z,93.00
2024-04-01T04:21:42.306Z,92.67
2024-04-01T04:22:45.091Z,93.50
2024-04-01T04:23:45.957Z,95.00
2024-04-01T04:24:47.039Z,95.17
2024-04-01T04:25:47.886Z,96.00
2024-04-01T04:26:48.852Z,96.50
2024-04-01T04:27:49.720Z,97.33
2024-04-01T04:28:50.702Z,98.50
2024-04-01T04:29:51.563Z,99.00
2024-04-01T04:30:52.423Z,98.67
2024-04-01T04:31:54.512Z,98.33
2024-04-01T04:32:55.369Z,98.00
2024-04-01T04:33:56.291Z,98.00
2024-04-01T04:34:57.142Z,98.00
2024-04-01T04:35:58.274Z,98.00
2024-04-01T04:36:59.249Z,98.17
2024-04-01T04:38:02.128Z,99.00
2024-04-01T04:39:19.441Z,100.00
2024-04-01T04:40:20.502Z,102.00
2024-04-01T04:41:22.380Z,103.00
2024-04-01T04:42:23.230Z,103.00
2024-04-01T04:43:24.067Z,103.00
2024-04-01T04:44:24.900Z,103.00
2024-04-01T04:45:26.000Z,103.00
2024-04-01T04:46:26.889Z,103.00
2024-04-01T04:47:27.777Z,103.00
2024-04-01T04:48:28.878Z,103.33
2024-04-01T04:49:29.722Z,104.83
2024-04-01T04:50:31.669Z,105.83
2024-04-01T04:51:33.632Z,108.00
2024-04-01T04:52:34.472Z,109.00
2024-04-01T04:53:35.985Z,110.50
2024-04-01T04:54:37.270Z,114.17
2024-04-01T04:55:40.173Z,120.17
2024-04-01T04:56:41.011Z,124.67
2024-04-01T04:57:42.277Z,124.50
2024-04-01T04:58:43.112Z,127.00
2024-04-01T04:59:43.957Z,129.67
2024-04-01T05:00:44.820Z,136.67
2024-04-01T05:01:45.656Z,147.00
2024-04-01T05:02:47.788Z,154.67
2024-04-01T05:03:48.675Z,148.17
2024-04-01T05:04:50.052Z,143.00
2024-04-01T05:05:50.947Z,141.67
2024-04-01T05:06:51.784Z,141.67
2024-04-01T05:07:52.619Z,140.67
2024-04-01T05:08:53.562Z,140.00
2024-04-01T05:09:54.427Z,139.17
2024-04-01T05:10:56.336Z,139.00
2024-04-01T05:11:57.269Z,138.00
2024-04-01T05:12:58.198Z,138.00
2024-04-01T05:13:59.099Z,140.33
2024-04-01T05:14:59.940Z,147.00
2024-04-01T05:16:01.008Z,146.00
2024-04-01T05:17:01.853Z,145.50
2024-04-01T05:18:03.679Z,154.33
2024-04-01T05:19:07.458Z,166.83
2024-04-01T05:20:13.791Z,174.00
2024-04-01T05:21:14.635Z,187.67
2024-04-01T05:22:15.465Z,197.83
2024-04-01T05:23:16.298Z,205.50
2024-04-01T05:24:17.778Z,200.50
2024-04-01T05:25:18.709Z,199.00
2024-04-01T05:26:20.241Z,204.00
2024-04-01T05:27:21.651Z,202.83
2024-04-01T05:28:22.693Z,202.33
2024-04-01T05:29:23.531Z,208.67
2024-04-01T05:30:24.371Z,216.67
2024-04-01T05:31:25.237Z,217.50
2024-04-01T05:32:26.086Z,214.17
2024-04-01T05:33:33.266Z,210.67
2024-04-01T05:34:37.768Z,208.50
2024-04-01T05:35:38.606Z,209.33
2024-04-01T05:36:39.456Z,209.17
2024-04-01T05:37:41.388Z,209.50
2024-04-01T05:38:42.273Z,215.50
2024-04-01T05:39:43.120Z,223.00
2024-04-01T05:40:44.111Z,218.50
2024-04-01T05:41:44.953Z,216.17
2024-04-01T05:42:45.822Z,216.00
2024-04-01T05:43:46.667Z,217.00
2024-04-01T05:44:47.846Z,217.67
2024-04-01T05:45:50.054Z,215.83
2024-04-01T05:46:51.306Z,208.33
2024-04-01T05:47:52.818Z,200.33
2024-04-01T05:48:53.697Z,191.83
2024-04-01T05:49:54.541Z,183.67
2024-04-01T05:50:55.379Z,167.17
2024-04-01T05:51:56.240Z,159.83
2024-04-01T05:52:57.114Z,166.50
2024-04-01T05:53:57.963Z,157.33
2024-04-01T05:54:58.809Z,157.00
2024-04-01T05:56:03.486Z,155.33
2024-04-01T05:57:04.361Z,160.50
2024-04-01T05:58:05.197Z,159.50
2024-04-01T05:59:06.037Z,155.33
2024-04-01T06:00:08.347Z,157.50
2024-04-01T06:01:11.691Z,155.67
2024-04-01T06:02:12.531Z,154.33
2024-04-01T06:03:13.412Z,155.33
2024-04-01T06:04:14.272Z,151.33
2024-04-01T06:05:15.354Z,148.17
2024-04-01T06:06:16.201Z,151.67
2024-04-01T06:07:17.039Z,152.67
2024-04-01T06:08:17.873Z,153.83
2024-04-01T06:09:18.729Z,154.83
2024-04-01T06:10:20.052Z,155.17
2024-04-01T06:11:20.891Z,156.00
2024-04-01T06:12:21.716Z,156.00
2024-04-01T06:13:22.547Z,156.50
2024-04-01T06:14:23.383Z,157.33
2024-04-01T06:15:24.255Z,158.00
2024-04-01T06:16:26.157Z,155.00
2024-04-01T06:17:27.036Z,154.00
2024-04-01T06:18:27.903Z,155.00
2024-04-01T06:19:28.822Z,155.00
2024-04-01T06:20:30.146Z,155.00
2024-04-01T06:21:32.586Z,155.00
2024-04-01T06:22:33.576Z,155.00
2024-04-01T06:23:34.428Z,155.33
2024-04-01T06:24:35.282Z,155.33
2024-04-01T06:25:39.921Z,157.50
2024-04-01T06:26:40.778Z,158.00
2024-04-01T06:27:41.612Z,158.00
2024-04-01T06:28:44.551Z,158.00
2024-04-01T06:29:45.407Z,158.00
2024-04-01T06:30:47.974Z,157.50
2024-04-01T06:31:48.842Z,157.00
2024-04-01T06:32:49.714Z,157.00
2024-04-01T06:33:50.572Z,157.00
2024-04-01T06:34:54.172Z,157.00
2024-04-01T06:36:22.745Z,156.00
2024-04-01T06:37:23.595Z,157.00
2024-04-01T06:38:24.428Z,156.17
2024-04-01T06:39:25.288Z,156.00
2024-04-01T06:40:26.253Z,156.00
2024-04-01T06:41:27.528Z,154.83
2024-04-01T06:42:28.412Z,152.17
2024-04-01T06:43:29.563Z,154.83
2024-04-01T06:44:30.478Z,159.00
2024-04-01T06:45:31.317Z,159.33
2024-04-01T06:46:32.158Z,157.17
2024-04-01T06:47:33.030Z,155.17
2024-04-01T06:48:34.865Z,158.17
2024-04-01T06:49:35.727Z,168.33
2024-04-01T06:50:36.586Z,179.83
2024-04-01T06:51:37.432Z,168.50
2024-04-01T06:52:38.294Z,156.33
2024-04-01T06:53:39.201Z,153.83
2024-04-01T06:54:40.210Z,149.50
2024-04-01T06:55:41.053Z,142.83
2024-04-01T06:56:41.892Z,144.83
2024-04-01T06:57:43.687Z,146.00
2024-04-01T06:58:44.548Z,147.00
2024-04-01T06:59:45.386Z,150.83
2024-04-01T07:00:46.221Z,158.83
2024-04-01T07:01:47.059Z,158.17
2024-04-01T07:02:47.927Z,148.50
2024-04-01T07:03:48.843Z,138.17
2024-04-01T07:04:49.691Z,137.17
2024-04-01T07:05:50.552Z,137.83
2024-04-01T07:06:51.408Z,138.00
2024-04-01T07:07:52.246Z,139.50
2024-04-01T07:08:53.087Z,137.83
2024-04-01T07:09:53.937Z,135.17
2024-04-01T07:10:54.837Z,135.00
2024-04-01T07:11:55.686Z,136.33
2024-04-01T07:12:56.520Z,137.00
2024-04-01T07:13:57.365Z,137.00
2024-04-01T07:14:58.205Z,137.33
2024-04-01T07:15:59.081Z,138.00
2024-04-01T07:17:01.387Z,136.17
2024-04-01T07:18:02.221Z,133.00
2024-04-01T07:19:03.071Z,131.67
2024-04-01T07:20:05.044Z,127.17
2024-04-01T07:21:05.915Z,123.67
2024-04-01T07:22:06.757Z,116.50
2024-04-01T07:23:07.598Z,115.67
2024-04-01T07:24:08.472Z,117.50
2024-04-01T07:25:09.337Z,114.00
2024-04-01T07:26:10.221Z,112.00
2024-04-01T07:27:11.051Z,110.33
2024-04-01T07:28:11.930Z,109.83
2024-04-01T07:29:15.606Z,105.50
2024-04-01T07:30:16.554Z,105.50
2024-04-01T07:31:17.418Z,101.33
2024-04-01T07:32:18.379Z,103.83
2024-04-01T07:33:19.260Z,101.00
2024-04-01T07:34:20.130Z,99.33
2024-04-01T07:35:20.974Z,98.33
2024-04-01T07:36:21.837Z,99.67
2024-04-01T07:37:22.768Z,101.00
2024-04-01T07:38:23.598Z,100.67
2024-04-01T07:39:24.492Z,100.50
2024-04-01T07:40:26.425Z,101.00
2024-04-01T07:41:27.268Z,101.17
2024-04-01T07:42:28.112Z,99.67
2024-04-01T07:43:28.982Z,91.50
2024-04-01T07:44:29.846Z,90.00
2024-04-01T07:45:30.707Z,88.67
2024-04-01T07:46:31.589Z,88.67
2024-04-01T07:47:32.559Z,90.67
2024-04-01T07:48:33.393Z,91.00
2024-04-01T07:49:34.628Z,90.00
2024-04-01T07:50:35.459Z,90.83
2024-04-01T07:51:36.324Z,95.00
2024-04-01T07:52:37.650Z,99.17
2024-04-01T07:53:38.538Z,101.67
2024-04-01T07:54:39.377Z,103.33
2024-04-01T07:55:40.228Z,105.50
2024-04-01T07:56:41.066Z,106.33
2024-04-01T07:57:41.906Z,105.17
2024-04-01T07:58:42.775Z,104.00
2024-04-01T07:59:44.118Z,103.50
2024-04-01T08:00:44.960Z,103.00
2024-04-01T08:01:45.802Z,104.50
2024-04-01T08:02:46.658Z,106.00
2024-04-01T08:03:47.494Z,107.00
2024-04-01T08:04:48.839Z,106.67
2024-04-01T08:05:50.531Z,110.33
2024-04-01T08:06:51.393Z,121.00
2024-04-01T08:07:52.236Z,120.67
2024-04-01T08:08:53.088Z,117.67
2024-04-01T08:09:53.922Z,116.33
2024-04-01T08:10:54.757Z,115.17
2024-04-01T08:11:55.622Z,111.17
2024-04-01T08:12:56.469Z,93.33
2024-04-01T08:13:57.312Z,82.67
2024-04-01T08:14:58.163Z,81.67
2024-04-01T08:16:02.399Z,81.33
2024-04-01T08:17:03.978Z,78.33
2024-04-01T08:18:04.950Z,75.67
2024-04-01T08:19:05.790Z,69.67
2024-04-01T08:20:08.457Z,60.67
2024-04-01T08:21:09.331Z,56.17
2024-04-01T08:22:10.230Z,51.50
2024-04-01T08:23:11.062Z,47.00
2024-04-01T08:24:12.164Z,42.17
2024-04-01T08:25:13.733Z,38.83
2024-04-01T08:26:14.579Z,36.50
2024-04-01T08:27:16.922Z,39.50
2024-04-01T08:28:17.876Z,39.17
2024-04-01T08:29:18.714Z,41.17
2024-04-01T08:30:19.546Z,41.50
2024-04-01T08:31:20.408Z,39.17
2024-04-01T08:32:21.242Z,37.17
2024-04-01T08:33:22.106Z,39.00
2024-04-01T08:34:23.631Z,40.83
2024-04-01T08:35:24.522Z,41.17
2024-04-01T08:36:25.378Z,40.33
2024-04-01T08:37:26.638Z,37.00
2024-04-01T08:38:27.962Z,35.33
2024-04-01T08:39:28.812Z,35.00
2024-04-01T08:40:31.830Z,34.33
2024-04-01T08:41:51.950Z,32.83
2024-04-01T08:42:55.260Z,32.17
2024-04-01T08:43:58.786Z,33.33
2024-04-01T08:44:59.640Z,35.00
2024-04-01T08:46:00.603Z,36.67
2024-04-01T08:47:01.530Z,36.67
2024-04-01T08:48:06.976Z,36.00
2024-04-01T08:49:10.989Z,36.33
2024-04-01T08:50:23.766Z,37.00
2024-04-01T08:51:25.237Z,37.00
2024-04-01T08:52:26.953Z,36.50
2024-04-01T08:53:33.511Z,35.83
2024-04-01T08:54:34.369Z,35.00
2024-04-01T08:55:35.220Z,35.00
2024-04-01T08:56:42.407Z,35.00
2024-04-01T08:57:44.815Z,35.00
2024-04-01T08:58:48.254Z,35.00
2024-04-01T08:59:49.768Z,34.50
2024-04-01T09:00:50.623Z,34.00
2024-04-01T09:01:51.468Z,34.00
2024-04-01T09:02:52.311Z,35.83
2024-04-01T09:03:53.414Z,40.50
2024-04-01T09:04:54.808Z,41.33
2024-04-01T09:05:57.792Z,43.33
2024-04-01T09:06:58.727Z,45.00
2024-04-01T09:07:59.574Z,44.50
2024-04-01T09:09:00.459Z,43.83
2024-04-01T09:10:01.291Z,42.33
2024-04-01T09:11:02.133Z,42.00
2024-04-01T09:12:03.140Z,44.33
2024-04-01T09:13:04.062Z,51.33
2024-04-01T09:14:05.744Z,52.50
2024-04-01T09:15:12.036Z,52.00
2024-04-01T09:16:12.871Z,51.67
2024-04-01T09:17:22.872Z,50.67
2024-04-01T09:18:23.746Z,48.17
2024-04-01T09:19:24.907Z,46.67
2024-04-01T09:20:25.780Z,44.67
2024-04-01T09:21:26.638Z,42.83
2024-04-01T09:22:27.493Z,42.00
2024-04-01T09:23:30.607Z,42.00
2024-04-01T09:24:33.928Z,42.00
2024-04-01T09:25:34.867Z,42.00
2024-04-01T09:26:35.759Z,41.17
2024-04-01T09:27:36.591Z,41.83
2024-04-01T09:28:37.458Z,42.67
2024-04-01T09:29:38.361Z,43.83
2024-04-01T09:30:39.209Z,44.67
2024-04-01T09:31:40.105Z,45.67
2024-04-01T09:32:40.951Z,46.67
2024-04-01T09:33:41.788Z,44.00
2024-04-01T09:34:42.865Z,39.67
2024-04-01T09:35:43.743Z,35.50
2024-04-01T09:36:44.597Z,29.33
2024-04-01T09:37:45.467Z,25.67
2024-04-01T09:38:46.579Z,28.17
2024-04-01T09:39:47.441Z,31.50
2024-04-01T09:40:51.765Z,34.67
2024-04-01T09:41:52.629Z,35.17
2024-04-01T09:42:57.660Z,36.50
2024-04-01T09:43:58.566Z,37.00
2024-04-01T09:44:59.670Z,38.33
2024-04-01T09:46:02.739Z,46.50
2024-04-01T09:47:05.080Z,55.33
2024-04-01T09:48:06.288Z,68.33
2024-04-01T09:49:07.132Z,84.67
2024-04-01T09:50:07.959Z,74.83
2024-04-01T09:51:08.829Z,66.33
2024-04-01T09:52:09.671Z,64.50
2024-04-01T09:53:10.510Z,65.83
2024-04-01T09:54:11.356Z,84.17
2024-04-01T09:55:21.469Z,89.50
2024-04-01T09:56:39.968Z,86.83
2024-04-01T09:58:18.233Z,78.67
2024-04-01T09:59:27.295Z,59.17
2024-04-01T10:00:38.347Z,41.33
2024-04-01T10:02:16.075Z,35.50
2024-04-01T10:03:38.217Z,36.50
2024-04-01T10:04:55.816Z,33.17
2024-04-01T10:06:14.435Z,33.50
2024-04-01T10:07:47.328Z,29.33
2024-04-01T10:09:15.594Z,25.17
2024-04-01T10:10:35.732Z,20.33
2024-04-01T10:11:56.285Z,25.83
2024-04-01T10:13:33.611Z,28.17
2024-04-01T10:15:20.603Z,30.33
2024-04-01T10:16:53.875Z,44.00
2024-04-01T10:18:35.603Z,45.50
2024-04-01T10:20:08.671Z,43.00
2024-04-01T10:21:20.910Z,42.00
2024-04-01T10:22:30.428Z,41.50
2024-04-01T10:23:55.574Z,39.17
2024-04-01T10:25:05.291Z,36.17
2024-04-01T10:26:43.246Z,36.00
2024-04-01T10:28:08.175Z,39.50
2024-04-01T10:29:46.028Z,44.50
2024-04-01T10:31:08.664Z,45.00
2024-04-01T10:32:15.211Z,44.00
2024-04-01T10:33:52.959Z,48.00
2024-04-01T10:35:20.850Z,54.50
2024-04-01T10:36:34.188Z,52.33
2024-04-01T10:37:51.436Z,51.17
2024-04-01T10:39:33.889Z,48.17
2024-04-01T10:40:53.099Z,46.00
2024-04-01T10:41:59.461Z,46.00
2024-04-01T10:43:29.057Z,45.50
2024-04-01T10:45:01.144Z,46.17
2024-04-01T10:46:04.684Z,48.83
2024-04-01T10:47:40.410Z,55.00
2024-04-01T10:49:23.261Z,56.00
2024-04-01T10:50:51.758Z,58.00
2024-04-01T10:52:21.731Z,60.83
2024-04-01T10:53:57.638Z,59.33
2024-04-01T10:55:08.301Z,58.67
2024-04-01T10:56:34.353Z,57.17
2024-04-01T10:57:59.421Z,57.50
2024-04-01T10:59:18.610Z,58.83
2024-04-01T11:00:52.809Z,59.00
2024-04-01T11:02:14.606Z,57.67
2024-04-01T11:03:24.184Z,57.00
2024-04-01T11:04:33.508Z,57.33
2024-04-01T11:06:11.619Z,58.00
2024-04-01T11:07:15.233Z,58.00
2024-04-01T11:08:29.099Z,69.00
2024-04-01T11:09:55.887Z,79.33
2024-04-01T11:11:15.295Z,73.83
2024-04-01T11:12:51.143Z,71.33
2024-04-01T11:13:52.017Z,71.17
2024-04-01T11:14:52.908Z,81.33
2024-04-01T11:15:55.433Z,76.67
2024-04-01T11:16:57.126Z,74.00
2024-04-01T11:18:22.345Z,86.67
2024-04-01T11:19:37.637Z,104.50
2024-04-01T11:20:44.480Z,89.83
2024-04-01T11:21:50.841Z,79.00
2024-04-01T11:23:01.295Z,67.00
2024-04-01T11:24:33.494Z,64.33
2024-04-01T11:26:11.064Z,60.83
2024-04-01T11:27:30.446Z,61.83
2024-04-01T11:29:08.343Z,61.83
2024-04-01T11:30:20.908Z,51.50
2024-04-01T11:31:23.796Z,51.17
2024-04-01T11:32:24.900Z,53.33
2024-04-01T11:33:27.125Z,71.33
2024-04-01T11:34:54.691Z,99.17
2024-04-01T11:35:55.528Z,85.17
2024-04-01T11:37:07.671Z,80.00
2024-04-01T11:38:26.940Z,69.67
2024-04-01T11:39:27.773Z,65.33
2024-04-01T11:40:32.828Z,66.33
2024-04-01T11:41:34.394Z,75.67
2024-04-01T11:42:38.934Z,93.50
2024-04-01T11:43:41.069Z,98.33
2024-04-01T11:44:46.250Z,90.33
2024-04-01T11:45:47.798Z,90.00
2024-04-01T11:46:48.674Z,98.67
2024-04-01T11:47:49.528Z,108.33
2024-04-01T11:48:56.347Z,122.33
2024-04-01T11:49:57.229Z,127.67
2024-04-01T11:50:58.410Z,110.83
2024-04-01T11:51:59.305Z,104.83
2024-04-01T11:53:05.303Z,99.17
2024-04-01T11:54:08.727Z,93.83
2024-04-01T11:55:12.861Z,89.33
2024-04-01T11:56:13.705Z,91.83
2024-04-01T11:57:23.724Z,84.83
2024-04-01T11:58:25.190Z,74.83
2024-04-01T11:59:29.847Z,82.83
2024-04-01T12:00:30.889Z,97.17
2024-04-01T12:01:32.330Z,100.00
2024-04-01T12:02:34.137Z,100.17
2024-04-01T12:03:39.461Z,99.33
2024-04-01T12:04:40.319Z,90.83
2024-04-01T12:05:51.571Z,83.00
2024-04-01T12:06:52.411Z,77.00
2024-04-01T12:07:53.245Z,70.83
2024-04-01T12:08:54.088Z,69.17
2024-04-01T12:09:54.920Z,69.33
2024-04-01T12:10:58.134Z,69.83
2024-04-01T12:11:59.778Z,65.00
2024-04-01T12:13:00.638Z,61.33
2024-04-01T12:14:05.028Z,64.50
2024-04-01T12:15:06.056Z,66.17
2024-04-01T12:16:08.288Z,67.67
2024-04-01T12:17:09.130Z,68.67
2024-04-01T12:18:16.210Z,69.00
2024-04-01T12:19:17.410Z,69.67
2024-04-01T12:20:18.489Z,77.67
2024-04-01T12:21:20.856Z,75.33
2024-04-01T12:22:21.800Z,57.17
2024-04-01T12:23:23.724Z,46.83
2024-04-01T12:24:24.555Z,45.17
2024-04-01T12:25:25.408Z,45.33
2024-04-01T12:26:36.255Z,50.17
2024-04-01T12:27:37.724Z,52.83
2024-04-01T12:28:38.697Z,52.50
2024-04-01T12:29:39.547Z,51.67
2024-04-01T12:30:40.893Z,50.00
2024-04-01T12:32:08.110Z,49.00
2024-04-01T12:33:18.357Z,50.00
2024-04-01T12:34:25.641Z,48.17
2024-04-01T12:35:26.474Z,47.00
2024-04-01T12:36:27.310Z,47.00
2024-04-01T12:37:28.162Z,45.67
2024-04-01T12:38:33.413Z,41.33
2024-04-01T12:39:42.309Z,37.33
2024-04-01T12:40:46.242Z,35.67
2024-04-01T12:41:50.048Z,37.83
2024-04-01T12:42:51.462Z,39.00
2024-04-01T12:43:52.317Z,40.17
2024-04-01T12:44:53.234Z,41.00
2024-04-01T12:45:54.301Z,39.50
2024-04-01T12:46:55.131Z,36.67
2024-04-01T12:47:55.984Z,35.00
2024-04-01T12:48:57.086Z,34.00
2024-04-01T12:50:01.172Z,34.17
2024-04-01T12:51:02.662Z,35.33
2024-04-01T12:52:04.087Z,37.67
2024-04-01T12:53:14.396Z,40.33
2024-04-01T12:54:23.576Z,41.83
2024-04-01T12:55:26.313Z,40.33
2024-04-01T12:56:41.976Z,35.83
2024-04-01T12:58:03.523Z,25.17
2024-04-01T12:59:16.113Z,20.33
2024-04-01T13:00:23.236Z,21.17
2024-04-01T13:01:53.996Z,23.67
2024-04-01T13:03:21.488Z,26.00
2024-04-01T13:04:22.251Z,27.00
2024-04-01T13:05:26.887Z,26.17
2024-04-01T13:06:48.424Z,24.17
2024-04-01T13:08:28.499Z,22.50
2024-04-01T13:09:58.855Z,22.17
2024-04-01T13:11:26.901Z,22.00
2024-04-01T13:12:45.598Z,23.00
2024-04-01T13:14:08.535Z,24.00
2024-04-01T13:15:33.593Z,25.00
2024-04-01T13:17:08.228Z,24.17
2024-04-01T13:18:12.804Z,24.67
2024-04-01T13:19:24.720Z,25.67
2024-04-01T13:20:34.372Z,29.50
2024-04-01T13:21:47.193Z,32.00
2024-04-01T13:23:23.572Z,33.83
2024-04-01T13:24:27.552Z,42.83
2024-04-01T13:25:44.917Z,59.17
2024-04-01T13:26:51.302Z,62.67
2024-04-01T13:28:10.749Z,56.67
2024-04-01T13:29:16.013Z,52.33
2024-04-01T13:30:34.578Z,50.83
2024-04-01T13:32:03.136Z,48.67
2024-04-01T13:33:04.045Z,45.67
2024-04-01T13:34:07.570Z,42.00